<?xml version="1.0" encoding="UTF-8" standalone="no" ?>
<gpx xmlns="http://www.topografix.com/GPX/1/1" xmlns:xsi="http://www.w3.org/2001/XMLSchema-instance" xsi:schemaLocation="http://www.topografix.com/GPX/1/1 http://www.topografix.com/GPX/1/1/gpx.xsd" version="1.1" creator="VisuGPX - https://www.visugpx.com">
  <metadata>
    <name>escapade du 08112015</name>
    <desc><![CDATA[escapade \"nordic ensues 2015\"
marche nordique que du bonheur et une météo parfaite]]></desc>
  </metadata>
  <trk>
    <name><![CDATA[8 nov. 2015]]></name>
    <cmt><![CDATA[09:14:40]]></cmt>
    <desc><![CDATA[comment ...]]></desc>
    <trkseg>
      <trkpt lat="43.35687" lon="5.2065">
        <ele>137</ele>
        <time>2015-11-08T08:14:34Z</time>
      </trkpt>
      <trkpt lat="43.35689" lon="5.20646">
        <ele>128</ele>
        <time>2015-11-08T08:15:05Z</time>
      </trkpt>
      <trkpt lat="43.35698" lon="5.20652">
        <ele>136</ele>
        <time>2015-11-08T08:15:11Z</time>
      </trkpt>
      <trkpt lat="43.357" lon="5.20649">
        <ele>124</ele>
        <time>2015-11-08T08:15:21Z</time>
      </trkpt>
      <trkpt lat="43.35702" lon="5.2065">
        <ele>116</ele>
        <time>2015-11-08T08:15:59Z</time>
      </trkpt>
      <trkpt lat="43.35701" lon="5.20651">
        <ele>117</ele>
        <time>2015-11-08T08:16:59Z</time>
      </trkpt>
      <trkpt lat="43.35699" lon="5.20651">
        <ele>110</ele>
        <time>2015-11-08T08:19:36Z</time>
      </trkpt>
      <trkpt lat="43.357" lon="5.20654">
        <ele>115</ele>
        <time>2015-11-08T08:22:56Z</time>
      </trkpt>
      <trkpt lat="43.35699" lon="5.2065">
        <ele>115</ele>
        <time>2015-11-08T08:24:56Z</time>
      </trkpt>
      <trkpt lat="43.35696" lon="5.20652">
        <ele>115</ele>
        <time>2015-11-08T08:25:18Z</time>
      </trkpt>
      <trkpt lat="43.35696" lon="5.20654">
        <ele>108</ele>
        <time>2015-11-08T08:25:46Z</time>
      </trkpt>
      <trkpt lat="43.35694" lon="5.20657">
        <ele>108</ele>
        <time>2015-11-08T08:25:53Z</time>
      </trkpt>
      <trkpt lat="43.35689" lon="5.20659">
        <ele>110</ele>
        <time>2015-11-08T08:26:03Z</time>
      </trkpt>
      <trkpt lat="43.35687" lon="5.20659">
        <ele>110</ele>
        <time>2015-11-08T08:26:06Z</time>
      </trkpt>
      <trkpt lat="43.35684" lon="5.20658">
        <ele>111</ele>
        <time>2015-11-08T08:26:12Z</time>
      </trkpt>
      <trkpt lat="43.35682" lon="5.20659">
        <ele>111</ele>
        <time>2015-11-08T08:26:15Z</time>
      </trkpt>
      <trkpt lat="43.35681" lon="5.20659">
        <ele>111</ele>
        <time>2015-11-08T08:26:17Z</time>
      </trkpt>
      <trkpt lat="43.35679" lon="5.2066">
        <ele>111</ele>
        <time>2015-11-08T08:26:19Z</time>
      </trkpt>
      <trkpt lat="43.35671" lon="5.20659">
        <ele>110</ele>
        <time>2015-11-08T08:26:29Z</time>
      </trkpt>
      <trkpt lat="43.3567" lon="5.20658">
        <ele>110</ele>
        <time>2015-11-08T08:26:31Z</time>
      </trkpt>
      <trkpt lat="43.35668" lon="5.20659">
        <ele>109</ele>
        <time>2015-11-08T08:26:42Z</time>
      </trkpt>
      <trkpt lat="43.35667" lon="5.2066">
        <ele>110</ele>
        <time>2015-11-08T08:26:46Z</time>
      </trkpt>
      <trkpt lat="43.35666" lon="5.20663">
        <ele>114</ele>
        <time>2015-11-08T08:28:31Z</time>
      </trkpt>
      <trkpt lat="43.35665" lon="5.20661">
        <ele>117</ele>
        <time>2015-11-08T08:31:21Z</time>
      </trkpt>
      <trkpt lat="43.35665" lon="5.20658">
        <ele>117</ele>
        <time>2015-11-08T08:31:27Z</time>
      </trkpt>
      <trkpt lat="43.35664" lon="5.20655">
        <ele>115</ele>
        <time>2015-11-08T08:31:37Z</time>
      </trkpt>
      <trkpt lat="43.35664" lon="5.20652">
        <ele>115</ele>
        <time>2015-11-08T08:31:40Z</time>
      </trkpt>
      <trkpt lat="43.35663" lon="5.2065">
        <ele>115</ele>
        <time>2015-11-08T08:31:42Z</time>
      </trkpt>
      <trkpt lat="43.35662" lon="5.20648">
        <ele>115</ele>
        <time>2015-11-08T08:31:45Z</time>
      </trkpt>
      <trkpt lat="43.3566" lon="5.20644">
        <ele>115</ele>
        <time>2015-11-08T08:31:50Z</time>
      </trkpt>
      <trkpt lat="43.3566" lon="5.20642">
        <ele>114</ele>
        <time>2015-11-08T08:31:52Z</time>
      </trkpt>
      <trkpt lat="43.35659" lon="5.20637">
        <ele>114</ele>
        <time>2015-11-08T08:31:58Z</time>
      </trkpt>
      <trkpt lat="43.35658" lon="5.20636">
        <ele>111</ele>
        <time>2015-11-08T08:33:47Z</time>
      </trkpt>
      <trkpt lat="43.35658" lon="5.20633">
        <ele>110</ele>
        <time>2015-11-08T08:36:07Z</time>
      </trkpt>
      <trkpt lat="43.35658" lon="5.20631">
        <ele>110</ele>
        <time>2015-11-08T08:36:10Z</time>
      </trkpt>
      <trkpt lat="43.35658" lon="5.20629">
        <ele>110</ele>
        <time>2015-11-08T08:36:12Z</time>
      </trkpt>
      <trkpt lat="43.35656" lon="5.20626">
        <ele>114</ele>
        <time>2015-11-08T08:36:19Z</time>
      </trkpt>
      <trkpt lat="43.35655" lon="5.20624">
        <ele>114</ele>
        <time>2015-11-08T08:37:15Z</time>
      </trkpt>
      <trkpt lat="43.35643" lon="5.20567">
        <ele>114</ele>
        <time>2015-11-08T08:37:46Z</time>
      </trkpt>
      <trkpt lat="43.35624" lon="5.20511">
        <ele>113</ele>
        <time>2015-11-08T08:38:15Z</time>
      </trkpt>
      <trkpt lat="43.356" lon="5.2046">
        <ele>111</ele>
        <time>2015-11-08T08:38:45Z</time>
      </trkpt>
      <trkpt lat="43.356" lon="5.20458">
        <ele>112</ele>
        <time>2015-11-08T08:38:46Z</time>
      </trkpt>
      <trkpt lat="43.35591" lon="5.20437">
        <ele>110</ele>
        <time>2015-11-08T08:38:58Z</time>
      </trkpt>
      <trkpt lat="43.35582" lon="5.20435">
        <ele>111</ele>
        <time>2015-11-08T08:39:05Z</time>
      </trkpt>
      <trkpt lat="43.35584" lon="5.20433">
        <ele>113</ele>
        <time>2015-11-08T08:39:06Z</time>
      </trkpt>
      <trkpt lat="43.35581" lon="5.2043">
        <ele>114</ele>
        <time>2015-11-08T08:39:08Z</time>
      </trkpt>
      <trkpt lat="43.3558" lon="5.2043">
        <ele>114</ele>
        <time>2015-11-08T08:39:09Z</time>
      </trkpt>
      <trkpt lat="43.35565" lon="5.20416">
        <ele>112</ele>
        <time>2015-11-08T08:39:19Z</time>
      </trkpt>
      <trkpt lat="43.35565" lon="5.20413">
        <ele>112</ele>
        <time>2015-11-08T08:39:20Z</time>
      </trkpt>
      <trkpt lat="43.35563" lon="5.20405">
        <ele>112</ele>
        <time>2015-11-08T08:39:25Z</time>
      </trkpt>
      <trkpt lat="43.35561" lon="5.20403">
        <ele>112</ele>
        <time>2015-11-08T08:39:26Z</time>
      </trkpt>
      <trkpt lat="43.3556" lon="5.20402">
        <ele>112</ele>
        <time>2015-11-08T08:39:27Z</time>
      </trkpt>
      <trkpt lat="43.35543" lon="5.20344">
        <ele>116</ele>
        <time>2015-11-08T08:39:57Z</time>
      </trkpt>
      <trkpt lat="43.35533" lon="5.20281">
        <ele>115</ele>
        <time>2015-11-08T08:40:27Z</time>
      </trkpt>
      <trkpt lat="43.35533" lon="5.20279">
        <ele>115</ele>
        <time>2015-11-08T08:40:28Z</time>
      </trkpt>
      <trkpt lat="43.35533" lon="5.20277">
        <ele>114</ele>
        <time>2015-11-08T08:40:29Z</time>
      </trkpt>
      <trkpt lat="43.35532" lon="5.20275">
        <ele>114</ele>
        <time>2015-11-08T08:40:30Z</time>
      </trkpt>
      <trkpt lat="43.35548" lon="5.2022">
        <ele>116</ele>
        <time>2015-11-08T08:41:00Z</time>
      </trkpt>
      <trkpt lat="43.35568" lon="5.20159">
        <ele>114</ele>
        <time>2015-11-08T08:41:30Z</time>
      </trkpt>
      <trkpt lat="43.35563" lon="5.20092">
        <ele>106</ele>
        <time>2015-11-08T08:42:01Z</time>
      </trkpt>
      <trkpt lat="43.35549" lon="5.20031">
        <ele>102</ele>
        <time>2015-11-08T08:42:31Z</time>
      </trkpt>
      <trkpt lat="43.35524" lon="5.19974">
        <ele>97</ele>
        <time>2015-11-08T08:43:01Z</time>
      </trkpt>
      <trkpt lat="43.35524" lon="5.19971">
        <ele>97</ele>
        <time>2015-11-08T08:43:02Z</time>
      </trkpt>
      <trkpt lat="43.35513" lon="5.19905">
        <ele>94</ele>
        <time>2015-11-08T08:43:33Z</time>
      </trkpt>
      <trkpt lat="43.35512" lon="5.19899">
        <ele>93</ele>
        <time>2015-11-08T08:43:35Z</time>
      </trkpt>
      <trkpt lat="43.35513" lon="5.19897">
        <ele>94</ele>
        <time>2015-11-08T08:43:36Z</time>
      </trkpt>
      <trkpt lat="43.3551" lon="5.19838">
        <ele>98</ele>
        <time>2015-11-08T08:44:06Z</time>
      </trkpt>
      <trkpt lat="43.35511" lon="5.19774">
        <ele>98</ele>
        <time>2015-11-08T08:44:36Z</time>
      </trkpt>
      <trkpt lat="43.3551" lon="5.19772">
        <ele>97</ele>
        <time>2015-11-08T08:44:37Z</time>
      </trkpt>
      <trkpt lat="43.3551" lon="5.19767">
        <ele>97</ele>
        <time>2015-11-08T08:44:40Z</time>
      </trkpt>
      <trkpt lat="43.35505" lon="5.19753">
        <ele>96</ele>
        <time>2015-11-08T08:44:47Z</time>
      </trkpt>
      <trkpt lat="43.35497" lon="5.19742">
        <ele>94</ele>
        <time>2015-11-08T08:44:56Z</time>
      </trkpt>
      <trkpt lat="43.35495" lon="5.19742">
        <ele>95</ele>
        <time>2015-11-08T08:45:00Z</time>
      </trkpt>
      <trkpt lat="43.35485" lon="5.19737">
        <ele>95</ele>
        <time>2015-11-08T08:45:06Z</time>
      </trkpt>
      <trkpt lat="43.35483" lon="5.19737">
        <ele>95</ele>
        <time>2015-11-08T08:45:08Z</time>
      </trkpt>
      <trkpt lat="43.3548" lon="5.19736">
        <ele>95</ele>
        <time>2015-11-08T08:45:09Z</time>
      </trkpt>
      <trkpt lat="43.35431" lon="5.19737">
        <ele>90</ele>
        <time>2015-11-08T08:45:39Z</time>
      </trkpt>
      <trkpt lat="43.35429" lon="5.19736">
        <ele>90</ele>
        <time>2015-11-08T08:45:40Z</time>
      </trkpt>
      <trkpt lat="43.35424" lon="5.19737">
        <ele>91</ele>
        <time>2015-11-08T08:45:43Z</time>
      </trkpt>
      <trkpt lat="43.35423" lon="5.19736">
        <ele>91</ele>
        <time>2015-11-08T08:45:44Z</time>
      </trkpt>
      <trkpt lat="43.35381" lon="5.19744">
        <ele>93</ele>
        <time>2015-11-08T08:46:12Z</time>
      </trkpt>
      <trkpt lat="43.35379" lon="5.19746">
        <ele>93</ele>
        <time>2015-11-08T08:46:14Z</time>
      </trkpt>
      <trkpt lat="43.35377" lon="5.19747">
        <ele>93</ele>
        <time>2015-11-08T08:46:16Z</time>
      </trkpt>
      <trkpt lat="43.35334" lon="5.1974">
        <ele>101</ele>
        <time>2015-11-08T08:46:46Z</time>
      </trkpt>
      <trkpt lat="43.3529" lon="5.19723">
        <ele>106</ele>
        <time>2015-11-08T08:47:16Z</time>
      </trkpt>
      <trkpt lat="43.35288" lon="5.19721">
        <ele>106</ele>
        <time>2015-11-08T08:47:17Z</time>
      </trkpt>
      <trkpt lat="43.35287" lon="5.19712">
        <ele>106</ele>
        <time>2015-11-08T08:47:22Z</time>
      </trkpt>
      <trkpt lat="43.35285" lon="5.19709">
        <ele>106</ele>
        <time>2015-11-08T08:47:24Z</time>
      </trkpt>
      <trkpt lat="43.35283" lon="5.19704">
        <ele>102</ele>
        <time>2015-11-08T08:47:26Z</time>
      </trkpt>
      <trkpt lat="43.35283" lon="5.19702">
        <ele>102</ele>
        <time>2015-11-08T08:47:27Z</time>
      </trkpt>
      <trkpt lat="43.35282" lon="5.197">
        <ele>102</ele>
        <time>2015-11-08T08:47:28Z</time>
      </trkpt>
      <trkpt lat="43.35257" lon="5.19644">
        <ele>101</ele>
        <time>2015-11-08T08:47:58Z</time>
      </trkpt>
      <trkpt lat="43.35255" lon="5.1964">
        <ele>101</ele>
        <time>2015-11-08T08:48:00Z</time>
      </trkpt>
      <trkpt lat="43.35254" lon="5.19638">
        <ele>101</ele>
        <time>2015-11-08T08:48:01Z</time>
      </trkpt>
      <trkpt lat="43.35253" lon="5.19637">
        <ele>100</ele>
        <time>2015-11-08T08:48:02Z</time>
      </trkpt>
      <trkpt lat="43.35253" lon="5.19635">
        <ele>100</ele>
        <time>2015-11-08T08:48:03Z</time>
      </trkpt>
      <trkpt lat="43.35252" lon="5.19633">
        <ele>99</ele>
        <time>2015-11-08T08:48:04Z</time>
      </trkpt>
      <trkpt lat="43.35251" lon="5.19616">
        <ele>100</ele>
        <time>2015-11-08T08:48:10Z</time>
      </trkpt>
      <trkpt lat="43.35249" lon="5.19614">
        <ele>100</ele>
        <time>2015-11-08T08:48:11Z</time>
      </trkpt>
      <trkpt lat="43.35249" lon="5.19612">
        <ele>101</ele>
        <time>2015-11-08T08:48:12Z</time>
      </trkpt>
      <trkpt lat="43.35247" lon="5.1961">
        <ele>101</ele>
        <time>2015-11-08T08:48:13Z</time>
      </trkpt>
      <trkpt lat="43.35246" lon="5.19609">
        <ele>101</ele>
        <time>2015-11-08T08:48:14Z</time>
      </trkpt>
      <trkpt lat="43.35245" lon="5.19605">
        <ele>101</ele>
        <time>2015-11-08T08:48:16Z</time>
      </trkpt>
      <trkpt lat="43.35243" lon="5.19603">
        <ele>101</ele>
        <time>2015-11-08T08:48:17Z</time>
      </trkpt>
      <trkpt lat="43.35212" lon="5.19554">
        <ele>102</ele>
        <time>2015-11-08T08:48:47Z</time>
      </trkpt>
      <trkpt lat="43.35177" lon="5.19512">
        <ele>105</ele>
        <time>2015-11-08T08:49:18Z</time>
      </trkpt>
      <trkpt lat="43.35173" lon="5.19508">
        <ele>106</ele>
        <time>2015-11-08T08:49:21Z</time>
      </trkpt>
      <trkpt lat="43.35171" lon="5.19508">
        <ele>107</ele>
        <time>2015-11-08T08:49:22Z</time>
      </trkpt>
      <trkpt lat="43.3517" lon="5.19507">
        <ele>107</ele>
        <time>2015-11-08T08:49:23Z</time>
      </trkpt>
      <trkpt lat="43.35169" lon="5.19506">
        <ele>107</ele>
        <time>2015-11-08T08:49:24Z</time>
      </trkpt>
      <trkpt lat="43.35162" lon="5.19502">
        <ele>108</ele>
        <time>2015-11-08T08:49:29Z</time>
      </trkpt>
      <trkpt lat="43.35133" lon="5.1946">
        <ele>112</ele>
        <time>2015-11-08T08:50:00Z</time>
      </trkpt>
      <trkpt lat="43.35097" lon="5.19414">
        <ele>112</ele>
        <time>2015-11-08T08:50:30Z</time>
      </trkpt>
      <trkpt lat="43.35095" lon="5.1941">
        <ele>112</ele>
        <time>2015-11-08T08:50:32Z</time>
      </trkpt>
      <trkpt lat="43.35094" lon="5.19409">
        <ele>111</ele>
        <time>2015-11-08T08:50:33Z</time>
      </trkpt>
      <trkpt lat="43.35059" lon="5.19362">
        <ele>107</ele>
        <time>2015-11-08T08:51:03Z</time>
      </trkpt>
      <trkpt lat="43.35058" lon="5.19361">
        <ele>107</ele>
        <time>2015-11-08T08:51:04Z</time>
      </trkpt>
      <trkpt lat="43.35027" lon="5.19311">
        <ele>104</ele>
        <time>2015-11-08T08:51:34Z</time>
      </trkpt>
      <trkpt lat="43.34995" lon="5.19268">
        <ele>104</ele>
        <time>2015-11-08T08:52:04Z</time>
      </trkpt>
      <trkpt lat="43.34993" lon="5.19265">
        <ele>105</ele>
        <time>2015-11-08T08:52:06Z</time>
      </trkpt>
      <trkpt lat="43.34991" lon="5.19261">
        <ele>104</ele>
        <time>2015-11-08T08:52:08Z</time>
      </trkpt>
      <trkpt lat="43.3499" lon="5.1926">
        <ele>104</ele>
        <time>2015-11-08T08:52:09Z</time>
      </trkpt>
      <trkpt lat="43.34988" lon="5.19255">
        <ele>105</ele>
        <time>2015-11-08T08:52:12Z</time>
      </trkpt>
      <trkpt lat="43.34949" lon="5.19222">
        <ele>100</ele>
        <time>2015-11-08T08:52:42Z</time>
      </trkpt>
      <trkpt lat="43.34948" lon="5.19221">
        <ele>100</ele>
        <time>2015-11-08T08:52:43Z</time>
      </trkpt>
      <trkpt lat="43.34947" lon="5.19219">
        <ele>100</ele>
        <time>2015-11-08T08:52:44Z</time>
      </trkpt>
      <trkpt lat="43.34946" lon="5.19217">
        <ele>100</ele>
        <time>2015-11-08T08:52:45Z</time>
      </trkpt>
      <trkpt lat="43.34915" lon="5.19167">
        <ele>97</ele>
        <time>2015-11-08T08:53:15Z</time>
      </trkpt>
      <trkpt lat="43.34914" lon="5.19165">
        <ele>97</ele>
        <time>2015-11-08T08:53:16Z</time>
      </trkpt>
      <trkpt lat="43.3489" lon="5.19108">
        <ele>95</ele>
        <time>2015-11-08T08:53:46Z</time>
      </trkpt>
      <trkpt lat="43.34874" lon="5.19055">
        <ele>97</ele>
        <time>2015-11-08T08:54:16Z</time>
      </trkpt>
      <trkpt lat="43.3483" lon="5.19038">
        <ele>101</ele>
        <time>2015-11-08T08:54:46Z</time>
      </trkpt>
      <trkpt lat="43.34828" lon="5.19038">
        <ele>101</ele>
        <time>2015-11-08T08:54:47Z</time>
      </trkpt>
      <trkpt lat="43.34827" lon="5.19038">
        <ele>101</ele>
        <time>2015-11-08T08:54:48Z</time>
      </trkpt>
      <trkpt lat="43.34794" lon="5.19046">
        <ele>103</ele>
        <time>2015-11-08T08:55:11Z</time>
      </trkpt>
      <trkpt lat="43.34766" lon="5.19063">
        <ele>101</ele>
        <time>2015-11-08T08:55:32Z</time>
      </trkpt>
      <trkpt lat="43.34764" lon="5.19063">
        <ele>101</ele>
        <time>2015-11-08T08:55:33Z</time>
      </trkpt>
      <trkpt lat="43.34761" lon="5.19058">
        <ele>101</ele>
        <time>2015-11-08T08:55:36Z</time>
      </trkpt>
      <trkpt lat="43.34736" lon="5.19023">
        <ele>99</ele>
        <time>2015-11-08T08:56:01Z</time>
      </trkpt>
      <trkpt lat="43.34734" lon="5.19022">
        <ele>99</ele>
        <time>2015-11-08T08:56:03Z</time>
      </trkpt>
      <trkpt lat="43.34686" lon="5.19028">
        <ele>94</ele>
        <time>2015-11-08T08:56:34Z</time>
      </trkpt>
      <trkpt lat="43.34644" lon="5.19049">
        <ele>91</ele>
        <time>2015-11-08T08:57:04Z</time>
      </trkpt>
      <trkpt lat="43.34599" lon="5.19064">
        <ele>85</ele>
        <time>2015-11-08T08:57:35Z</time>
      </trkpt>
      <trkpt lat="43.34555" lon="5.1908">
        <ele>80</ele>
        <time>2015-11-08T08:58:05Z</time>
      </trkpt>
      <trkpt lat="43.34515" lon="5.19058">
        <ele>73</ele>
        <time>2015-11-08T08:58:31Z</time>
      </trkpt>
      <trkpt lat="43.34484" lon="5.19011">
        <ele>67</ele>
        <time>2015-11-08T08:59:01Z</time>
      </trkpt>
      <trkpt lat="43.34483" lon="5.1901">
        <ele>66</ele>
        <time>2015-11-08T08:59:02Z</time>
      </trkpt>
      <trkpt lat="43.34482" lon="5.19008">
        <ele>66</ele>
        <time>2015-11-08T08:59:03Z</time>
      </trkpt>
      <trkpt lat="43.34482" lon="5.19006">
        <ele>67</ele>
        <time>2015-11-08T08:59:04Z</time>
      </trkpt>
      <trkpt lat="43.34481" lon="5.19004">
        <ele>67</ele>
        <time>2015-11-08T08:59:06Z</time>
      </trkpt>
      <trkpt lat="43.3448" lon="5.19002">
        <ele>67</ele>
        <time>2015-11-08T08:59:07Z</time>
      </trkpt>
      <trkpt lat="43.34479" lon="5.19001">
        <ele>67</ele>
        <time>2015-11-08T08:59:08Z</time>
      </trkpt>
      <trkpt lat="43.34476" lon="5.18997">
        <ele>66</ele>
        <time>2015-11-08T08:59:10Z</time>
      </trkpt>
      <trkpt lat="43.34474" lon="5.18993">
        <ele>65</ele>
        <time>2015-11-08T08:59:12Z</time>
      </trkpt>
      <trkpt lat="43.34472" lon="5.18991">
        <ele>65</ele>
        <time>2015-11-08T08:59:14Z</time>
      </trkpt>
      <trkpt lat="43.34471" lon="5.18991">
        <ele>65</ele>
        <time>2015-11-08T08:59:15Z</time>
      </trkpt>
      <trkpt lat="43.3447" lon="5.18989">
        <ele>65</ele>
        <time>2015-11-08T08:59:16Z</time>
      </trkpt>
      <trkpt lat="43.34466" lon="5.18979">
        <ele>65</ele>
        <time>2015-11-08T08:59:21Z</time>
      </trkpt>
      <trkpt lat="43.34466" lon="5.18977">
        <ele>65</ele>
        <time>2015-11-08T08:59:22Z</time>
      </trkpt>
      <trkpt lat="43.34464" lon="5.18968">
        <ele>65</ele>
        <time>2015-11-08T08:59:26Z</time>
      </trkpt>
      <trkpt lat="43.34463" lon="5.18966">
        <ele>65</ele>
        <time>2015-11-08T08:59:27Z</time>
      </trkpt>
      <trkpt lat="43.34462" lon="5.18965">
        <ele>65</ele>
        <time>2015-11-08T08:59:28Z</time>
      </trkpt>
      <trkpt lat="43.34432" lon="5.18912">
        <ele>64</ele>
        <time>2015-11-08T08:59:58Z</time>
      </trkpt>
      <trkpt lat="43.34405" lon="5.18859">
        <ele>60</ele>
        <time>2015-11-08T09:00:27Z</time>
      </trkpt>
      <trkpt lat="43.34402" lon="5.18847">
        <ele>59</ele>
        <time>2015-11-08T09:00:33Z</time>
      </trkpt>
      <trkpt lat="43.34403" lon="5.18845">
        <ele>59</ele>
        <time>2015-11-08T09:00:34Z</time>
      </trkpt>
      <trkpt lat="43.34401" lon="5.18842">
        <ele>58</ele>
        <time>2015-11-08T09:00:36Z</time>
      </trkpt>
      <trkpt lat="43.34401" lon="5.18837">
        <ele>58</ele>
        <time>2015-11-08T09:00:39Z</time>
      </trkpt>
      <trkpt lat="43.344" lon="5.18835">
        <ele>58</ele>
        <time>2015-11-08T09:00:40Z</time>
      </trkpt>
      <trkpt lat="43.34397" lon="5.18823">
        <ele>57</ele>
        <time>2015-11-08T09:00:46Z</time>
      </trkpt>
      <trkpt lat="43.34393" lon="5.1882">
        <ele>56</ele>
        <time>2015-11-08T09:00:50Z</time>
      </trkpt>
      <trkpt lat="43.34383" lon="5.1882">
        <ele>55</ele>
        <time>2015-11-08T09:00:57Z</time>
      </trkpt>
      <trkpt lat="43.34382" lon="5.18819">
        <ele>55</ele>
        <time>2015-11-08T09:00:58Z</time>
      </trkpt>
      <trkpt lat="43.34379" lon="5.18817">
        <ele>56</ele>
        <time>2015-11-08T09:01:00Z</time>
      </trkpt>
      <trkpt lat="43.34376" lon="5.18814">
        <ele>56</ele>
        <time>2015-11-08T09:01:02Z</time>
      </trkpt>
      <trkpt lat="43.34357" lon="5.18754">
        <ele>55</ele>
        <time>2015-11-08T09:01:32Z</time>
      </trkpt>
      <trkpt lat="43.34356" lon="5.18752">
        <ele>55</ele>
        <time>2015-11-08T09:01:33Z</time>
      </trkpt>
      <trkpt lat="43.3435" lon="5.18733">
        <ele>55</ele>
        <time>2015-11-08T09:01:43Z</time>
      </trkpt>
      <trkpt lat="43.34348" lon="5.18732">
        <ele>55</ele>
        <time>2015-11-08T09:01:44Z</time>
      </trkpt>
      <trkpt lat="43.34347" lon="5.1873">
        <ele>55</ele>
        <time>2015-11-08T09:01:45Z</time>
      </trkpt>
      <trkpt lat="43.34325" lon="5.18673">
        <ele>54</ele>
        <time>2015-11-08T09:02:15Z</time>
      </trkpt>
      <trkpt lat="43.34293" lon="5.1862">
        <ele>53</ele>
        <time>2015-11-08T09:02:46Z</time>
      </trkpt>
      <trkpt lat="43.34291" lon="5.18617">
        <ele>53</ele>
        <time>2015-11-08T09:02:48Z</time>
      </trkpt>
      <trkpt lat="43.3429" lon="5.18617">
        <ele>53</ele>
        <time>2015-11-08T09:02:49Z</time>
      </trkpt>
      <trkpt lat="43.34288" lon="5.18616">
        <ele>52</ele>
        <time>2015-11-08T09:02:50Z</time>
      </trkpt>
      <trkpt lat="43.34283" lon="5.18616">
        <ele>51</ele>
        <time>2015-11-08T09:02:54Z</time>
      </trkpt>
      <trkpt lat="43.3428" lon="5.18619">
        <ele>54</ele>
        <time>2015-11-08T09:02:58Z</time>
      </trkpt>
      <trkpt lat="43.34277" lon="5.18622">
        <ele>55</ele>
        <time>2015-11-08T09:03:01Z</time>
      </trkpt>
      <trkpt lat="43.34267" lon="5.18622">
        <ele>58</ele>
        <time>2015-11-08T09:03:08Z</time>
      </trkpt>
      <trkpt lat="43.34266" lon="5.18622">
        <ele>58</ele>
        <time>2015-11-08T09:03:09Z</time>
      </trkpt>
      <trkpt lat="43.34258" lon="5.18617">
        <ele>59</ele>
        <time>2015-11-08T09:03:13Z</time>
      </trkpt>
      <trkpt lat="43.34257" lon="5.18616">
        <ele>58</ele>
        <time>2015-11-08T09:03:14Z</time>
      </trkpt>
      <trkpt lat="43.34249" lon="5.18609">
        <ele>57</ele>
        <time>2015-11-08T09:03:19Z</time>
      </trkpt>
      <trkpt lat="43.34244" lon="5.18593">
        <ele>55</ele>
        <time>2015-11-08T09:03:28Z</time>
      </trkpt>
      <trkpt lat="43.34242" lon="5.18589">
        <ele>54</ele>
        <time>2015-11-08T09:03:30Z</time>
      </trkpt>
      <trkpt lat="43.34243" lon="5.18586">
        <ele>54</ele>
        <time>2015-11-08T09:03:32Z</time>
      </trkpt>
      <trkpt lat="43.34244" lon="5.18567">
        <ele>52</ele>
        <time>2015-11-08T09:03:41Z</time>
      </trkpt>
      <trkpt lat="43.34252" lon="5.18559">
        <ele>52</ele>
        <time>2015-11-08T09:03:48Z</time>
      </trkpt>
      <trkpt lat="43.34252" lon="5.18556">
        <ele>52</ele>
        <time>2015-11-08T09:03:50Z</time>
      </trkpt>
      <trkpt lat="43.34249" lon="5.18557">
        <ele>52</ele>
        <time>2015-11-08T09:03:54Z</time>
      </trkpt>
      <trkpt lat="43.34248" lon="5.18557">
        <ele>52</ele>
        <time>2015-11-08T09:03:55Z</time>
      </trkpt>
      <trkpt lat="43.34246" lon="5.18558">
        <ele>52</ele>
        <time>2015-11-08T09:03:57Z</time>
      </trkpt>
      <trkpt lat="43.34241" lon="5.18557">
        <ele>51</ele>
        <time>2015-11-08T09:04:01Z</time>
      </trkpt>
      <trkpt lat="43.3424" lon="5.18556">
        <ele>51</ele>
        <time>2015-11-08T09:04:02Z</time>
      </trkpt>
      <trkpt lat="43.34237" lon="5.18555">
        <ele>51</ele>
        <time>2015-11-08T09:04:04Z</time>
      </trkpt>
      <trkpt lat="43.34195" lon="5.18534">
        <ele>47</ele>
        <time>2015-11-08T09:04:34Z</time>
      </trkpt>
      <trkpt lat="43.34194" lon="5.18534">
        <ele>48</ele>
        <time>2015-11-08T09:04:35Z</time>
      </trkpt>
      <trkpt lat="43.34188" lon="5.18532">
        <ele>47</ele>
        <time>2015-11-08T09:04:38Z</time>
      </trkpt>
      <trkpt lat="43.34185" lon="5.18533">
        <ele>48</ele>
        <time>2015-11-08T09:04:40Z</time>
      </trkpt>
      <trkpt lat="43.34184" lon="5.18535">
        <ele>49</ele>
        <time>2015-11-08T09:04:42Z</time>
      </trkpt>
      <trkpt lat="43.3418" lon="5.18534">
        <ele>48</ele>
        <time>2015-11-08T09:04:43Z</time>
      </trkpt>
      <trkpt lat="43.34138" lon="5.18497">
        <ele>48</ele>
        <time>2015-11-08T09:05:13Z</time>
      </trkpt>
      <trkpt lat="43.34137" lon="5.18493">
        <ele>49</ele>
        <time>2015-11-08T09:05:16Z</time>
      </trkpt>
      <trkpt lat="43.34136" lon="5.18491">
        <ele>49</ele>
        <time>2015-11-08T09:05:17Z</time>
      </trkpt>
      <trkpt lat="43.34126" lon="5.18468">
        <ele>49</ele>
        <time>2015-11-08T09:05:31Z</time>
      </trkpt>
      <trkpt lat="43.34121" lon="5.18466">
        <ele>50</ele>
        <time>2015-11-08T09:05:35Z</time>
      </trkpt>
      <trkpt lat="43.34097" lon="5.18451">
        <ele>53</ele>
        <time>2015-11-08T09:05:52Z</time>
      </trkpt>
      <trkpt lat="43.34097" lon="5.18449">
        <ele>53</ele>
        <time>2015-11-08T09:05:53Z</time>
      </trkpt>
      <trkpt lat="43.34096" lon="5.18447">
        <ele>54</ele>
        <time>2015-11-08T09:05:55Z</time>
      </trkpt>
      <trkpt lat="43.34092" lon="5.1844">
        <ele>55</ele>
        <time>2015-11-08T09:05:59Z</time>
      </trkpt>
      <trkpt lat="43.34087" lon="5.18424">
        <ele>56</ele>
        <time>2015-11-08T09:06:08Z</time>
      </trkpt>
      <trkpt lat="43.34072" lon="5.18369">
        <ele>57</ele>
        <time>2015-11-08T09:06:37Z</time>
      </trkpt>
      <trkpt lat="43.34049" lon="5.1836">
        <ele>57</ele>
        <time>2015-11-08T09:06:54Z</time>
      </trkpt>
      <trkpt lat="43.34041" lon="5.18362">
        <ele>59</ele>
        <time>2015-11-08T09:07:00Z</time>
      </trkpt>
      <trkpt lat="43.3404" lon="5.18365">
        <ele>59</ele>
        <time>2015-11-08T09:07:02Z</time>
      </trkpt>
      <trkpt lat="43.34024" lon="5.18375">
        <ele>63</ele>
        <time>2015-11-08T09:07:16Z</time>
      </trkpt>
      <trkpt lat="43.33987" lon="5.18384">
        <ele>75</ele>
        <time>2015-11-08T09:07:46Z</time>
      </trkpt>
      <trkpt lat="43.33985" lon="5.18384">
        <ele>75</ele>
        <time>2015-11-08T09:07:47Z</time>
      </trkpt>
      <trkpt lat="43.33948" lon="5.1839">
        <ele>70</ele>
        <time>2015-11-08T09:08:13Z</time>
      </trkpt>
      <trkpt lat="43.33914" lon="5.18346">
        <ele>70</ele>
        <time>2015-11-08T09:08:43Z</time>
      </trkpt>
      <trkpt lat="43.33903" lon="5.18338">
        <ele>72</ele>
        <time>2015-11-08T09:08:52Z</time>
      </trkpt>
      <trkpt lat="43.33896" lon="5.18338">
        <ele>73</ele>
        <time>2015-11-08T09:08:57Z</time>
      </trkpt>
      <trkpt lat="43.33887" lon="5.18346">
        <ele>73</ele>
        <time>2015-11-08T09:09:05Z</time>
      </trkpt>
      <trkpt lat="43.33883" lon="5.18366">
        <ele>73</ele>
        <time>2015-11-08T09:09:16Z</time>
      </trkpt>
      <trkpt lat="43.3389" lon="5.18429">
        <ele>77</ele>
        <time>2015-11-08T09:09:47Z</time>
      </trkpt>
      <trkpt lat="43.33892" lon="5.18495">
        <ele>79</ele>
        <time>2015-11-08T09:10:17Z</time>
      </trkpt>
      <trkpt lat="43.33884" lon="5.18556">
        <ele>81</ele>
        <time>2015-11-08T09:10:47Z</time>
      </trkpt>
      <trkpt lat="43.33913" lon="5.18593">
        <ele>81</ele>
        <time>2015-11-08T09:11:14Z</time>
      </trkpt>
      <trkpt lat="43.33956" lon="5.18602">
        <ele>86</ele>
        <time>2015-11-08T09:11:45Z</time>
      </trkpt>
      <trkpt lat="43.33964" lon="5.18612">
        <ele>87</ele>
        <time>2015-11-08T09:11:54Z</time>
      </trkpt>
      <trkpt lat="43.33969" lon="5.1867">
        <ele>91</ele>
        <time>2015-11-08T09:12:24Z</time>
      </trkpt>
      <trkpt lat="43.33972" lon="5.18726">
        <ele>97</ele>
        <time>2015-11-08T09:12:54Z</time>
      </trkpt>
      <trkpt lat="43.33973" lon="5.18792">
        <ele>97</ele>
        <time>2015-11-08T09:13:24Z</time>
      </trkpt>
      <trkpt lat="43.33967" lon="5.18854">
        <ele>100</ele>
        <time>2015-11-08T09:13:54Z</time>
      </trkpt>
      <trkpt lat="43.33943" lon="5.18906">
        <ele>102</ele>
        <time>2015-11-08T09:14:24Z</time>
      </trkpt>
      <trkpt lat="43.33931" lon="5.18917">
        <ele>101</ele>
        <time>2015-11-08T09:14:33Z</time>
      </trkpt>
      <trkpt lat="43.33913" lon="5.18918">
        <ele>98</ele>
        <time>2015-11-08T09:14:45Z</time>
      </trkpt>
      <trkpt lat="43.33893" lon="5.18971">
        <ele>90</ele>
        <time>2015-11-08T09:15:15Z</time>
      </trkpt>
      <trkpt lat="43.33871" lon="5.1903">
        <ele>84</ele>
        <time>2015-11-08T09:15:46Z</time>
      </trkpt>
      <trkpt lat="43.33864" lon="5.19038">
        <ele>84</ele>
        <time>2015-11-08T09:15:52Z</time>
      </trkpt>
      <trkpt lat="43.33863" lon="5.19038">
        <ele>84</ele>
        <time>2015-11-08T09:15:53Z</time>
      </trkpt>
      <trkpt lat="43.3383" lon="5.19072">
        <ele>82</ele>
        <time>2015-11-08T09:16:19Z</time>
      </trkpt>
      <trkpt lat="43.33829" lon="5.19075">
        <ele>81</ele>
        <time>2015-11-08T09:16:21Z</time>
      </trkpt>
      <trkpt lat="43.33838" lon="5.1911">
        <ele>80</ele>
        <time>2015-11-08T09:16:39Z</time>
      </trkpt>
      <trkpt lat="43.3387" lon="5.19154">
        <ele>77</ele>
        <time>2015-11-08T09:17:09Z</time>
      </trkpt>
      <trkpt lat="43.33882" lon="5.19215">
        <ele>73</ele>
        <time>2015-11-08T09:17:39Z</time>
      </trkpt>
      <trkpt lat="43.33875" lon="5.19249">
        <ele>71</ele>
        <time>2015-11-08T09:17:56Z</time>
      </trkpt>
      <trkpt lat="43.33873" lon="5.19252">
        <ele>70</ele>
        <time>2015-11-08T09:17:58Z</time>
      </trkpt>
      <trkpt lat="43.33869" lon="5.19286">
        <ele>72</ele>
        <time>2015-11-08T09:18:15Z</time>
      </trkpt>
      <trkpt lat="43.33868" lon="5.19344">
        <ele>80</ele>
        <time>2015-11-08T09:18:45Z</time>
      </trkpt>
      <trkpt lat="43.33844" lon="5.19399">
        <ele>77</ele>
        <time>2015-11-08T09:19:14Z</time>
      </trkpt>
      <trkpt lat="43.33831" lon="5.19402">
        <ele>79</ele>
        <time>2015-11-08T09:19:22Z</time>
      </trkpt>
      <trkpt lat="43.33822" lon="5.19401">
        <ele>80</ele>
        <time>2015-11-08T09:19:27Z</time>
      </trkpt>
      <trkpt lat="43.33821" lon="5.19399">
        <ele>81</ele>
        <time>2015-11-08T09:19:30Z</time>
      </trkpt>
      <trkpt lat="43.33792" lon="5.19394">
        <ele>88</ele>
        <time>2015-11-08T09:19:50Z</time>
      </trkpt>
      <trkpt lat="43.33788" lon="5.19397">
        <ele>89</ele>
        <time>2015-11-08T09:19:54Z</time>
      </trkpt>
      <trkpt lat="43.33784" lon="5.19402">
        <ele>89</ele>
        <time>2015-11-08T09:19:58Z</time>
      </trkpt>
      <trkpt lat="43.33783" lon="5.19414">
        <ele>89</ele>
        <time>2015-11-08T09:20:05Z</time>
      </trkpt>
      <trkpt lat="43.33782" lon="5.19416">
        <ele>90</ele>
        <time>2015-11-08T09:20:07Z</time>
      </trkpt>
      <trkpt lat="43.33781" lon="5.19423">
        <ele>91</ele>
        <time>2015-11-08T09:20:11Z</time>
      </trkpt>
      <trkpt lat="43.33782" lon="5.19426">
        <ele>91</ele>
        <time>2015-11-08T09:20:13Z</time>
      </trkpt>
      <trkpt lat="43.33787" lon="5.19439">
        <ele>90</ele>
        <time>2015-11-08T09:20:20Z</time>
      </trkpt>
      <trkpt lat="43.33807" lon="5.19496">
        <ele>92</ele>
        <time>2015-11-08T09:20:50Z</time>
      </trkpt>
      <trkpt lat="43.33831" lon="5.19551">
        <ele>92</ele>
        <time>2015-11-08T09:21:20Z</time>
      </trkpt>
      <trkpt lat="43.33859" lon="5.19607">
        <ele>90</ele>
        <time>2015-11-08T09:21:50Z</time>
      </trkpt>
      <trkpt lat="43.33886" lon="5.19661">
        <ele>89</ele>
        <time>2015-11-08T09:22:20Z</time>
      </trkpt>
      <trkpt lat="43.33907" lon="5.19679">
        <ele>91</ele>
        <time>2015-11-08T09:22:36Z</time>
      </trkpt>
      <trkpt lat="43.33906" lon="5.19681">
        <ele>91</ele>
        <time>2015-11-08T09:22:37Z</time>
      </trkpt>
      <trkpt lat="43.33908" lon="5.19689">
        <ele>90</ele>
        <time>2015-11-08T09:22:40Z</time>
      </trkpt>
      <trkpt lat="43.33906" lon="5.19695">
        <ele>91</ele>
        <time>2015-11-08T09:22:43Z</time>
      </trkpt>
      <trkpt lat="43.33891" lon="5.19707">
        <ele>95</ele>
        <time>2015-11-08T09:23:00Z</time>
      </trkpt>
      <trkpt lat="43.33891" lon="5.1971">
        <ele>95</ele>
        <time>2015-11-08T09:23:01Z</time>
      </trkpt>
      <trkpt lat="43.33892" lon="5.19713">
        <ele>95</ele>
        <time>2015-11-08T09:23:02Z</time>
      </trkpt>
      <trkpt lat="43.33891" lon="5.19716">
        <ele>95</ele>
        <time>2015-11-08T09:23:04Z</time>
      </trkpt>
      <trkpt lat="43.33888" lon="5.1972">
        <ele>94</ele>
        <time>2015-11-08T09:23:06Z</time>
      </trkpt>
      <trkpt lat="43.3387" lon="5.19729">
        <ele>94</ele>
        <time>2015-11-08T09:23:18Z</time>
      </trkpt>
      <trkpt lat="43.3387" lon="5.19734">
        <ele>94</ele>
        <time>2015-11-08T09:23:20Z</time>
      </trkpt>
      <trkpt lat="43.33868" lon="5.19737">
        <ele>95</ele>
        <time>2015-11-08T09:23:22Z</time>
      </trkpt>
      <trkpt lat="43.33866" lon="5.19738">
        <ele>95</ele>
        <time>2015-11-08T09:23:23Z</time>
      </trkpt>
      <trkpt lat="43.33865" lon="5.19738">
        <ele>96</ele>
        <time>2015-11-08T09:23:24Z</time>
      </trkpt>
      <trkpt lat="43.33862" lon="5.1974">
        <ele>96</ele>
        <time>2015-11-08T09:23:26Z</time>
      </trkpt>
      <trkpt lat="43.33861" lon="5.19745">
        <ele>98</ele>
        <time>2015-11-08T09:23:29Z</time>
      </trkpt>
      <trkpt lat="43.33861" lon="5.19747">
        <ele>98</ele>
        <time>2015-11-08T09:23:30Z</time>
      </trkpt>
      <trkpt lat="43.33859" lon="5.19754">
        <ele>101</ele>
        <time>2015-11-08T09:23:35Z</time>
      </trkpt>
      <trkpt lat="43.33861" lon="5.19802">
        <ele>109</ele>
        <time>2015-11-08T09:24:04Z</time>
      </trkpt>
      <trkpt lat="43.3386" lon="5.19803">
        <ele>109</ele>
        <time>2015-11-08T09:24:05Z</time>
      </trkpt>
      <trkpt lat="43.33858" lon="5.19807">
        <ele>109</ele>
        <time>2015-11-08T09:24:08Z</time>
      </trkpt>
      <trkpt lat="43.33847" lon="5.19814">
        <ele>110</ele>
        <time>2015-11-08T09:24:15Z</time>
      </trkpt>
      <trkpt lat="43.33847" lon="5.19817">
        <ele>111</ele>
        <time>2015-11-08T09:24:17Z</time>
      </trkpt>
      <trkpt lat="43.33845" lon="5.19817">
        <ele>111</ele>
        <time>2015-11-08T09:24:19Z</time>
      </trkpt>
      <trkpt lat="43.33844" lon="5.19818">
        <ele>112</ele>
        <time>2015-11-08T09:24:20Z</time>
      </trkpt>
      <trkpt lat="43.3382" lon="5.19822">
        <ele>113</ele>
        <time>2015-11-08T09:24:39Z</time>
      </trkpt>
      <trkpt lat="43.33823" lon="5.19826">
        <ele>114</ele>
        <time>2015-11-08T09:24:48Z</time>
      </trkpt>
      <trkpt lat="43.33864" lon="5.19846">
        <ele>115</ele>
        <time>2015-11-08T09:25:18Z</time>
      </trkpt>
      <trkpt lat="43.33907" lon="5.19859">
        <ele>119</ele>
        <time>2015-11-08T09:25:48Z</time>
      </trkpt>
      <trkpt lat="43.33929" lon="5.19878">
        <ele>120</ele>
        <time>2015-11-08T09:26:09Z</time>
      </trkpt>
      <trkpt lat="43.33931" lon="5.19879">
        <ele>117</ele>
        <time>2015-11-08T09:26:19Z</time>
      </trkpt>
      <trkpt lat="43.33931" lon="5.19881">
        <ele>116</ele>
        <time>2015-11-08T09:26:52Z</time>
      </trkpt>
      <trkpt lat="43.33931" lon="5.19885">
        <ele>114</ele>
        <time>2015-11-08T09:27:03Z</time>
      </trkpt>
      <trkpt lat="43.3393" lon="5.19888">
        <ele>113</ele>
        <time>2015-11-08T09:27:13Z</time>
      </trkpt>
      <trkpt lat="43.3393" lon="5.19893">
        <ele>113</ele>
        <time>2015-11-08T09:27:18Z</time>
      </trkpt>
      <trkpt lat="43.33929" lon="5.19895">
        <ele>113</ele>
        <time>2015-11-08T09:27:19Z</time>
      </trkpt>
      <trkpt lat="43.33922" lon="5.19958">
        <ele>104</ele>
        <time>2015-11-08T09:27:50Z</time>
      </trkpt>
      <trkpt lat="43.33916" lon="5.19992">
        <ele>104</ele>
        <time>2015-11-08T09:28:08Z</time>
      </trkpt>
      <trkpt lat="43.33915" lon="5.2">
        <ele>102</ele>
        <time>2015-11-08T09:28:12Z</time>
      </trkpt>
      <trkpt lat="43.33911" lon="5.20007">
        <ele>101</ele>
        <time>2015-11-08T09:28:16Z</time>
      </trkpt>
      <trkpt lat="43.33909" lon="5.2002">
        <ele>100</ele>
        <time>2015-11-08T09:28:21Z</time>
      </trkpt>
      <trkpt lat="43.33911" lon="5.20022">
        <ele>100</ele>
        <time>2015-11-08T09:28:22Z</time>
      </trkpt>
      <trkpt lat="43.3391" lon="5.20027">
        <ele>101</ele>
        <time>2015-11-08T09:28:24Z</time>
      </trkpt>
      <trkpt lat="43.33905" lon="5.20039">
        <ele>102</ele>
        <time>2015-11-08T09:28:31Z</time>
      </trkpt>
      <trkpt lat="43.33906" lon="5.20042">
        <ele>103</ele>
        <time>2015-11-08T09:28:32Z</time>
      </trkpt>
      <trkpt lat="43.33905" lon="5.20044">
        <ele>103</ele>
        <time>2015-11-08T09:28:33Z</time>
      </trkpt>
      <trkpt lat="43.33897" lon="5.20056">
        <ele>100</ele>
        <time>2015-11-08T09:28:38Z</time>
      </trkpt>
      <trkpt lat="43.33898" lon="5.20057">
        <ele>100</ele>
        <time>2015-11-08T09:28:39Z</time>
      </trkpt>
      <trkpt lat="43.33899" lon="5.20059">
        <ele>100</ele>
        <time>2015-11-08T09:28:40Z</time>
      </trkpt>
      <trkpt lat="43.33899" lon="5.20069">
        <ele>100</ele>
        <time>2015-11-08T09:28:44Z</time>
      </trkpt>
      <trkpt lat="43.33895" lon="5.20076">
        <ele>101</ele>
        <time>2015-11-08T09:28:48Z</time>
      </trkpt>
      <trkpt lat="43.33895" lon="5.20078">
        <ele>101</ele>
        <time>2015-11-08T09:28:49Z</time>
      </trkpt>
      <trkpt lat="43.3389" lon="5.20084">
        <ele>101</ele>
        <time>2015-11-08T09:28:52Z</time>
      </trkpt>
      <trkpt lat="43.33889" lon="5.2009">
        <ele>102</ele>
        <time>2015-11-08T09:28:56Z</time>
      </trkpt>
      <trkpt lat="43.33902" lon="5.20155">
        <ele>95</ele>
        <time>2015-11-08T09:29:26Z</time>
      </trkpt>
      <trkpt lat="43.33891" lon="5.20223">
        <ele>84</ele>
        <time>2015-11-08T09:29:57Z</time>
      </trkpt>
      <trkpt lat="43.3389" lon="5.20226">
        <ele>84</ele>
        <time>2015-11-08T09:29:59Z</time>
      </trkpt>
      <trkpt lat="43.33888" lon="5.20229">
        <ele>83</ele>
        <time>2015-11-08T09:30:00Z</time>
      </trkpt>
      <trkpt lat="43.33886" lon="5.20233">
        <ele>82</ele>
        <time>2015-11-08T09:30:02Z</time>
      </trkpt>
      <trkpt lat="43.33882" lon="5.20239">
        <ele>81</ele>
        <time>2015-11-08T09:30:05Z</time>
      </trkpt>
      <trkpt lat="43.33883" lon="5.20241">
        <ele>81</ele>
        <time>2015-11-08T09:30:06Z</time>
      </trkpt>
      <trkpt lat="43.3388" lon="5.2025">
        <ele>81</ele>
        <time>2015-11-08T09:30:10Z</time>
      </trkpt>
      <trkpt lat="43.33878" lon="5.20251">
        <ele>81</ele>
        <time>2015-11-08T09:30:11Z</time>
      </trkpt>
      <trkpt lat="43.33865" lon="5.20286">
        <ele>76</ele>
        <time>2015-11-08T09:30:29Z</time>
      </trkpt>
      <trkpt lat="43.33866" lon="5.20288">
        <ele>77</ele>
        <time>2015-11-08T09:30:30Z</time>
      </trkpt>
      <trkpt lat="43.33864" lon="5.20298">
        <ele>78</ele>
        <time>2015-11-08T09:30:34Z</time>
      </trkpt>
      <trkpt lat="43.33862" lon="5.203">
        <ele>77</ele>
        <time>2015-11-08T09:30:35Z</time>
      </trkpt>
      <trkpt lat="43.3386" lon="5.20301">
        <ele>77</ele>
        <time>2015-11-08T09:30:36Z</time>
      </trkpt>
      <trkpt lat="43.33858" lon="5.20304">
        <ele>77</ele>
        <time>2015-11-08T09:30:38Z</time>
      </trkpt>
      <trkpt lat="43.33854" lon="5.2031">
        <ele>76</ele>
        <time>2015-11-08T09:30:41Z</time>
      </trkpt>
      <trkpt lat="43.33852" lon="5.20324">
        <ele>76</ele>
        <time>2015-11-08T09:30:48Z</time>
      </trkpt>
      <trkpt lat="43.33851" lon="5.20325">
        <ele>76</ele>
        <time>2015-11-08T09:30:49Z</time>
      </trkpt>
      <trkpt lat="43.33846" lon="5.20333">
        <ele>75</ele>
        <time>2015-11-08T09:30:53Z</time>
      </trkpt>
      <trkpt lat="43.33845" lon="5.20335">
        <ele>75</ele>
        <time>2015-11-08T09:30:54Z</time>
      </trkpt>
      <trkpt lat="43.33844" lon="5.20338">
        <ele>75</ele>
        <time>2015-11-08T09:30:56Z</time>
      </trkpt>
      <trkpt lat="43.33816" lon="5.20395">
        <ele>78</ele>
        <time>2015-11-08T09:31:26Z</time>
      </trkpt>
      <trkpt lat="43.33807" lon="5.20405">
        <ele>73</ele>
        <time>2015-11-08T09:31:32Z</time>
      </trkpt>
      <trkpt lat="43.33804" lon="5.20417">
        <ele>72</ele>
        <time>2015-11-08T09:31:40Z</time>
      </trkpt>
      <trkpt lat="43.33808" lon="5.20429">
        <ele>74</ele>
        <time>2015-11-08T09:31:48Z</time>
      </trkpt>
      <trkpt lat="43.33829" lon="5.20464">
        <ele>76</ele>
        <time>2015-11-08T09:32:07Z</time>
      </trkpt>
      <trkpt lat="43.33828" lon="5.20466">
        <ele>76</ele>
        <time>2015-11-08T09:32:08Z</time>
      </trkpt>
      <trkpt lat="43.33819" lon="5.20497">
        <ele>71</ele>
        <time>2015-11-08T09:32:23Z</time>
      </trkpt>
      <trkpt lat="43.33817" lon="5.20499">
        <ele>71</ele>
        <time>2015-11-08T09:32:24Z</time>
      </trkpt>
      <trkpt lat="43.3381" lon="5.20525">
        <ele>72</ele>
        <time>2015-11-08T09:32:39Z</time>
      </trkpt>
      <trkpt lat="43.33809" lon="5.20586">
        <ele>73</ele>
        <time>2015-11-08T09:33:10Z</time>
      </trkpt>
      <trkpt lat="43.33827" lon="5.20611">
        <ele>75</ele>
        <time>2015-11-08T09:33:26Z</time>
      </trkpt>
      <trkpt lat="43.33865" lon="5.20599">
        <ele>75</ele>
        <time>2015-11-08T09:33:56Z</time>
      </trkpt>
      <trkpt lat="43.33904" lon="5.20583">
        <ele>82</ele>
        <time>2015-11-08T09:34:26Z</time>
      </trkpt>
      <trkpt lat="43.33945" lon="5.20597">
        <ele>87</ele>
        <time>2015-11-08T09:34:56Z</time>
      </trkpt>
      <trkpt lat="43.33981" lon="5.20635">
        <ele>89</ele>
        <time>2015-11-08T09:35:26Z</time>
      </trkpt>
      <trkpt lat="43.34026" lon="5.2063">
        <ele>87</ele>
        <time>2015-11-08T09:35:56Z</time>
      </trkpt>
      <trkpt lat="43.34064" lon="5.20645">
        <ele>91</ele>
        <time>2015-11-08T09:36:23Z</time>
      </trkpt>
      <trkpt lat="43.34099" lon="5.20673">
        <ele>99</ele>
        <time>2015-11-08T09:36:53Z</time>
      </trkpt>
      <trkpt lat="43.34139" lon="5.20704">
        <ele>100</ele>
        <time>2015-11-08T09:37:23Z</time>
      </trkpt>
      <trkpt lat="43.34141" lon="5.2071">
        <ele>101</ele>
        <time>2015-11-08T09:37:27Z</time>
      </trkpt>
      <trkpt lat="43.34131" lon="5.20755">
        <ele>102</ele>
        <time>2015-11-08T09:37:51Z</time>
      </trkpt>
      <trkpt lat="43.34112" lon="5.20799">
        <ele>106</ele>
        <time>2015-11-08T09:38:16Z</time>
      </trkpt>
      <trkpt lat="43.34108" lon="5.208">
        <ele>107</ele>
        <time>2015-11-08T09:38:19Z</time>
      </trkpt>
      <trkpt lat="43.34062" lon="5.20782">
        <ele>110</ele>
        <time>2015-11-08T09:38:49Z</time>
      </trkpt>
      <trkpt lat="43.34058" lon="5.20782">
        <ele>110</ele>
        <time>2015-11-08T09:38:51Z</time>
      </trkpt>
      <trkpt lat="43.34053" lon="5.20784">
        <ele>110</ele>
        <time>2015-11-08T09:38:55Z</time>
      </trkpt>
      <trkpt lat="43.34042" lon="5.20806">
        <ele>113</ele>
        <time>2015-11-08T09:39:09Z</time>
      </trkpt>
      <trkpt lat="43.34043" lon="5.20866">
        <ele>118</ele>
        <time>2015-11-08T09:39:40Z</time>
      </trkpt>
      <trkpt lat="43.3405" lon="5.20924">
        <ele>121</ele>
        <time>2015-11-08T09:40:10Z</time>
      </trkpt>
      <trkpt lat="43.34066" lon="5.2098">
        <ele>124</ele>
        <time>2015-11-08T09:40:40Z</time>
      </trkpt>
      <trkpt lat="43.34093" lon="5.21027">
        <ele>127</ele>
        <time>2015-11-08T09:41:10Z</time>
      </trkpt>
      <trkpt lat="43.34103" lon="5.21067">
        <ele>125</ele>
        <time>2015-11-08T09:41:30Z</time>
      </trkpt>
      <trkpt lat="43.3408" lon="5.21121">
        <ele>127</ele>
        <time>2015-11-08T09:42:00Z</time>
      </trkpt>
      <trkpt lat="43.3405" lon="5.21167">
        <ele>131</ele>
        <time>2015-11-08T09:42:31Z</time>
      </trkpt>
      <trkpt lat="43.34003" lon="5.21177">
        <ele>133</ele>
        <time>2015-11-08T09:43:01Z</time>
      </trkpt>
      <trkpt lat="43.34001" lon="5.21179">
        <ele>133</ele>
        <time>2015-11-08T09:43:03Z</time>
      </trkpt>
      <trkpt lat="43.33972" lon="5.21225">
        <ele>139</ele>
        <time>2015-11-08T09:43:33Z</time>
      </trkpt>
      <trkpt lat="43.33963" lon="5.21261">
        <ele>142</ele>
        <time>2015-11-08T09:43:52Z</time>
      </trkpt>
      <trkpt lat="43.33964" lon="5.21274">
        <ele>144</ele>
        <time>2015-11-08T09:44:00Z</time>
      </trkpt>
      <trkpt lat="43.33963" lon="5.21277">
        <ele>144</ele>
        <time>2015-11-08T09:44:02Z</time>
      </trkpt>
      <trkpt lat="43.33929" lon="5.21317">
        <ele>149</ele>
        <time>2015-11-08T09:44:32Z</time>
      </trkpt>
      <trkpt lat="43.33913" lon="5.21366">
        <ele>153</ele>
        <time>2015-11-08T09:45:01Z</time>
      </trkpt>
      <trkpt lat="43.33923" lon="5.21426">
        <ele>156</ele>
        <time>2015-11-08T09:45:32Z</time>
      </trkpt>
      <trkpt lat="43.3394" lon="5.21486">
        <ele>158</ele>
        <time>2015-11-08T09:46:02Z</time>
      </trkpt>
      <trkpt lat="43.33972" lon="5.21536">
        <ele>156</ele>
        <time>2015-11-08T09:46:32Z</time>
      </trkpt>
      <trkpt lat="43.34017" lon="5.21555">
        <ele>153</ele>
        <time>2015-11-08T09:47:02Z</time>
      </trkpt>
      <trkpt lat="43.3406" lon="5.21532">
        <ele>156</ele>
        <time>2015-11-08T09:47:32Z</time>
      </trkpt>
      <trkpt lat="43.34095" lon="5.21554">
        <ele>161</ele>
        <time>2015-11-08T09:48:02Z</time>
      </trkpt>
      <trkpt lat="43.3411" lon="5.21607">
        <ele>167</ele>
        <time>2015-11-08T09:48:32Z</time>
      </trkpt>
      <trkpt lat="43.34122" lon="5.21665">
        <ele>171</ele>
        <time>2015-11-08T09:49:03Z</time>
      </trkpt>
      <trkpt lat="43.3412" lon="5.2172">
        <ele>176</ele>
        <time>2015-11-08T09:49:33Z</time>
      </trkpt>
      <trkpt lat="43.34113" lon="5.21775">
        <ele>180</ele>
        <time>2015-11-08T09:50:03Z</time>
      </trkpt>
      <trkpt lat="43.34107" lon="5.21827">
        <ele>186</ele>
        <time>2015-11-08T09:50:33Z</time>
      </trkpt>
      <trkpt lat="43.34108" lon="5.2188">
        <ele>193</ele>
        <time>2015-11-08T09:51:03Z</time>
      </trkpt>
      <trkpt lat="43.34119" lon="5.21935">
        <ele>195</ele>
        <time>2015-11-08T09:51:33Z</time>
      </trkpt>
      <trkpt lat="43.34133" lon="5.21989">
        <ele>197</ele>
        <time>2015-11-08T09:52:03Z</time>
      </trkpt>
      <trkpt lat="43.34171" lon="5.2202">
        <ele>196</ele>
        <time>2015-11-08T09:52:34Z</time>
      </trkpt>
      <trkpt lat="43.34202" lon="5.22056">
        <ele>200</ele>
        <time>2015-11-08T09:53:05Z</time>
      </trkpt>
      <trkpt lat="43.34201" lon="5.2211">
        <ele>206</ele>
        <time>2015-11-08T09:53:35Z</time>
      </trkpt>
      <trkpt lat="43.34194" lon="5.22164">
        <ele>211</ele>
        <time>2015-11-08T09:54:06Z</time>
      </trkpt>
      <trkpt lat="43.34179" lon="5.22215">
        <ele>213</ele>
        <time>2015-11-08T09:54:37Z</time>
      </trkpt>
      <trkpt lat="43.34174" lon="5.22229">
        <ele>215</ele>
        <time>2015-11-08T09:54:48Z</time>
      </trkpt>
      <trkpt lat="43.34172" lon="5.22229">
        <ele>215</ele>
        <time>2015-11-08T09:54:56Z</time>
      </trkpt>
      <trkpt lat="43.34171" lon="5.22229">
        <ele>215</ele>
        <time>2015-11-08T09:55:20Z</time>
      </trkpt>
      <trkpt lat="43.34171" lon="5.22232">
        <ele>213</ele>
        <time>2015-11-08T09:55:57Z</time>
      </trkpt>
      <trkpt lat="43.34169" lon="5.22233">
        <ele>214</ele>
        <time>2015-11-08T09:56:36Z</time>
      </trkpt>
      <trkpt lat="43.34169" lon="5.22235">
        <ele>214</ele>
        <time>2015-11-08T09:56:44Z</time>
      </trkpt>
      <trkpt lat="43.34167" lon="5.22237">
        <ele>214</ele>
        <time>2015-11-08T09:56:47Z</time>
      </trkpt>
      <trkpt lat="43.34166" lon="5.2224">
        <ele>214</ele>
        <time>2015-11-08T09:56:50Z</time>
      </trkpt>
      <trkpt lat="43.34163" lon="5.22244">
        <ele>214</ele>
        <time>2015-11-08T09:56:54Z</time>
      </trkpt>
      <trkpt lat="43.34162" lon="5.22251">
        <ele>214</ele>
        <time>2015-11-08T09:56:58Z</time>
      </trkpt>
      <trkpt lat="43.34163" lon="5.2226">
        <ele>214</ele>
        <time>2015-11-08T09:57:04Z</time>
      </trkpt>
      <trkpt lat="43.34172" lon="5.22266">
        <ele>214</ele>
        <time>2015-11-08T09:57:12Z</time>
      </trkpt>
      <trkpt lat="43.34213" lon="5.2227">
        <ele>210</ele>
        <time>2015-11-08T09:57:42Z</time>
      </trkpt>
      <trkpt lat="43.34248" lon="5.22236">
        <ele>208</ele>
        <time>2015-11-08T09:58:12Z</time>
      </trkpt>
      <trkpt lat="43.3429" lon="5.22224">
        <ele>204</ele>
        <time>2015-11-08T09:58:42Z</time>
      </trkpt>
      <trkpt lat="43.34311" lon="5.22245">
        <ele>205</ele>
        <time>2015-11-08T09:59:00Z</time>
      </trkpt>
      <trkpt lat="43.34312" lon="5.22271">
        <ele>204</ele>
        <time>2015-11-08T09:59:13Z</time>
      </trkpt>
      <trkpt lat="43.343" lon="5.22307">
        <ele>200</ele>
        <time>2015-11-08T09:59:32Z</time>
      </trkpt>
      <trkpt lat="43.34303" lon="5.22311">
        <ele>199</ele>
        <time>2015-11-08T09:59:35Z</time>
      </trkpt>
      <trkpt lat="43.34305" lon="5.22314">
        <ele>199</ele>
        <time>2015-11-08T09:59:37Z</time>
      </trkpt>
      <trkpt lat="43.34345" lon="5.2234">
        <ele>197</ele>
        <time>2015-11-08T10:00:07Z</time>
      </trkpt>
      <trkpt lat="43.34384" lon="5.22372">
        <ele>198</ele>
        <time>2015-11-08T10:00:38Z</time>
      </trkpt>
      <trkpt lat="43.34424" lon="5.224">
        <ele>196</ele>
        <time>2015-11-08T10:01:08Z</time>
      </trkpt>
      <trkpt lat="43.3446" lon="5.22419">
        <ele>194</ele>
        <time>2015-11-08T10:01:33Z</time>
      </trkpt>
      <trkpt lat="43.34471" lon="5.22472">
        <ele>192</ele>
        <time>2015-11-08T10:01:59Z</time>
      </trkpt>
      <trkpt lat="43.34473" lon="5.22473">
        <ele>191</ele>
        <time>2015-11-08T10:02:00Z</time>
      </trkpt>
      <trkpt lat="43.34488" lon="5.22416">
        <ele>185</ele>
        <time>2015-11-08T10:02:30Z</time>
      </trkpt>
      <trkpt lat="43.34483" lon="5.22353">
        <ele>181</ele>
        <time>2015-11-08T10:03:00Z</time>
      </trkpt>
      <trkpt lat="43.34473" lon="5.2229">
        <ele>175</ele>
        <time>2015-11-08T10:03:30Z</time>
      </trkpt>
      <trkpt lat="43.3446" lon="5.2223">
        <ele>173</ele>
        <time>2015-11-08T10:04:01Z</time>
      </trkpt>
      <trkpt lat="43.34459" lon="5.22228">
        <ele>174</ele>
        <time>2015-11-08T10:04:02Z</time>
      </trkpt>
      <trkpt lat="43.34446" lon="5.22167">
        <ele>173</ele>
        <time>2015-11-08T10:04:32Z</time>
      </trkpt>
      <trkpt lat="43.34444" lon="5.22162">
        <ele>174</ele>
        <time>2015-11-08T10:04:34Z</time>
      </trkpt>
      <trkpt lat="43.34444" lon="5.22161">
        <ele>174</ele>
        <time>2015-11-08T10:04:35Z</time>
      </trkpt>
      <trkpt lat="43.34443" lon="5.22159">
        <ele>174</ele>
        <time>2015-11-08T10:04:36Z</time>
      </trkpt>
      <trkpt lat="43.34443" lon="5.22157">
        <ele>174</ele>
        <time>2015-11-08T10:04:37Z</time>
      </trkpt>
      <trkpt lat="43.34432" lon="5.2209">
        <ele>175</ele>
        <time>2015-11-08T10:05:08Z</time>
      </trkpt>
      <trkpt lat="43.34433" lon="5.22064">
        <ele>175</ele>
        <time>2015-11-08T10:05:21Z</time>
      </trkpt>
      <trkpt lat="43.3446" lon="5.22004">
        <ele>173</ele>
        <time>2015-11-08T10:05:52Z</time>
      </trkpt>
      <trkpt lat="43.34487" lon="5.21954">
        <ele>175</ele>
        <time>2015-11-08T10:06:22Z</time>
      </trkpt>
      <trkpt lat="43.3452" lon="5.21914">
        <ele>173</ele>
        <time>2015-11-08T10:06:52Z</time>
      </trkpt>
      <trkpt lat="43.34534" lon="5.21857">
        <ele>180</ele>
        <time>2015-11-08T10:07:22Z</time>
      </trkpt>
      <trkpt lat="43.34558" lon="5.21796">
        <ele>179</ele>
        <time>2015-11-08T10:07:52Z</time>
      </trkpt>
      <trkpt lat="43.34589" lon="5.21745">
        <ele>177</ele>
        <time>2015-11-08T10:08:22Z</time>
      </trkpt>
      <trkpt lat="43.3459" lon="5.21715">
        <ele>175</ele>
        <time>2015-11-08T10:08:37Z</time>
      </trkpt>
      <trkpt lat="43.34589" lon="5.21712">
        <ele>175</ele>
        <time>2015-11-08T10:08:38Z</time>
      </trkpt>
      <trkpt lat="43.34589" lon="5.21707">
        <ele>175</ele>
        <time>2015-11-08T10:08:40Z</time>
      </trkpt>
      <trkpt lat="43.34585" lon="5.217">
        <ele>175</ele>
        <time>2015-11-08T10:08:45Z</time>
      </trkpt>
      <trkpt lat="43.34584" lon="5.21699">
        <ele>175</ele>
        <time>2015-11-08T10:08:46Z</time>
      </trkpt>
      <trkpt lat="43.34555" lon="5.21681">
        <ele>169</ele>
        <time>2015-11-08T10:09:05Z</time>
      </trkpt>
      <trkpt lat="43.34554" lon="5.21679">
        <ele>168</ele>
        <time>2015-11-08T10:09:06Z</time>
      </trkpt>
      <trkpt lat="43.34553" lon="5.21678">
        <ele>168</ele>
        <time>2015-11-08T10:09:07Z</time>
      </trkpt>
      <trkpt lat="43.34553" lon="5.21675">
        <ele>167</ele>
        <time>2015-11-08T10:09:08Z</time>
      </trkpt>
      <trkpt lat="43.34549" lon="5.21616">
        <ele>164</ele>
        <time>2015-11-08T10:09:36Z</time>
      </trkpt>
      <trkpt lat="43.34547" lon="5.21615">
        <ele>164</ele>
        <time>2015-11-08T10:09:37Z</time>
      </trkpt>
      <trkpt lat="43.34547" lon="5.21613">
        <ele>164</ele>
        <time>2015-11-08T10:09:38Z</time>
      </trkpt>
      <trkpt lat="43.34542" lon="5.21607">
        <ele>164</ele>
        <time>2015-11-08T10:09:42Z</time>
      </trkpt>
      <trkpt lat="43.34541" lon="5.21603">
        <ele>164</ele>
        <time>2015-11-08T10:09:44Z</time>
      </trkpt>
      <trkpt lat="43.34539" lon="5.21601">
        <ele>164</ele>
        <time>2015-11-08T10:09:46Z</time>
      </trkpt>
      <trkpt lat="43.34538" lon="5.21599">
        <ele>163</ele>
        <time>2015-11-08T10:09:47Z</time>
      </trkpt>
      <trkpt lat="43.34536" lon="5.21598">
        <ele>163</ele>
        <time>2015-11-08T10:09:48Z</time>
      </trkpt>
      <trkpt lat="43.34512" lon="5.21544">
        <ele>158</ele>
        <time>2015-11-08T10:10:18Z</time>
      </trkpt>
      <trkpt lat="43.34511" lon="5.21542">
        <ele>157</ele>
        <time>2015-11-08T10:10:19Z</time>
      </trkpt>
      <trkpt lat="43.3451" lon="5.21539">
        <ele>157</ele>
        <time>2015-11-08T10:10:20Z</time>
      </trkpt>
      <trkpt lat="43.34509" lon="5.21535">
        <ele>157</ele>
        <time>2015-11-08T10:10:22Z</time>
      </trkpt>
      <trkpt lat="43.34507" lon="5.21531">
        <ele>157</ele>
        <time>2015-11-08T10:10:24Z</time>
      </trkpt>
      <trkpt lat="43.34489" lon="5.21469">
        <ele>149</ele>
        <time>2015-11-08T10:10:54Z</time>
      </trkpt>
      <trkpt lat="43.34494" lon="5.21403">
        <ele>145</ele>
        <time>2015-11-08T10:11:24Z</time>
      </trkpt>
      <trkpt lat="43.34494" lon="5.21335">
        <ele>140</ele>
        <time>2015-11-08T10:11:54Z</time>
      </trkpt>
      <trkpt lat="43.34475" lon="5.21271">
        <ele>137</ele>
        <time>2015-11-08T10:12:25Z</time>
      </trkpt>
      <trkpt lat="43.34474" lon="5.21268">
        <ele>137</ele>
        <time>2015-11-08T10:12:26Z</time>
      </trkpt>
      <trkpt lat="43.34443" lon="5.21215">
        <ele>136</ele>
        <time>2015-11-08T10:12:56Z</time>
      </trkpt>
      <trkpt lat="43.3444" lon="5.21207">
        <ele>136</ele>
        <time>2015-11-08T10:13:00Z</time>
      </trkpt>
      <trkpt lat="43.34432" lon="5.2119">
        <ele>134</ele>
        <time>2015-11-08T10:13:09Z</time>
      </trkpt>
      <trkpt lat="43.34432" lon="5.21185">
        <ele>134</ele>
        <time>2015-11-08T10:13:11Z</time>
      </trkpt>
      <trkpt lat="43.34431" lon="5.21183">
        <ele>134</ele>
        <time>2015-11-08T10:13:12Z</time>
      </trkpt>
      <trkpt lat="43.34435" lon="5.2112">
        <ele>128</ele>
        <time>2015-11-08T10:13:42Z</time>
      </trkpt>
      <trkpt lat="43.34431" lon="5.21054">
        <ele>128</ele>
        <time>2015-11-08T10:14:12Z</time>
      </trkpt>
      <trkpt lat="43.3443" lon="5.21051">
        <ele>128</ele>
        <time>2015-11-08T10:14:13Z</time>
      </trkpt>
      <trkpt lat="43.34428" lon="5.21044">
        <ele>127</ele>
        <time>2015-11-08T10:14:16Z</time>
      </trkpt>
      <trkpt lat="43.34428" lon="5.21042">
        <ele>126</ele>
        <time>2015-11-08T10:14:17Z</time>
      </trkpt>
      <trkpt lat="43.34427" lon="5.2104">
        <ele>126</ele>
        <time>2015-11-08T10:14:18Z</time>
      </trkpt>
      <trkpt lat="43.34414" lon="5.21028">
        <ele>122</ele>
        <time>2015-11-08T10:14:29Z</time>
      </trkpt>
      <trkpt lat="43.34412" lon="5.21028">
        <ele>122</ele>
        <time>2015-11-08T10:14:30Z</time>
      </trkpt>
      <trkpt lat="43.34363" lon="5.21037">
        <ele>118</ele>
        <time>2015-11-08T10:15:00Z</time>
      </trkpt>
      <trkpt lat="43.34361" lon="5.21038">
        <ele>118</ele>
        <time>2015-11-08T10:15:01Z</time>
      </trkpt>
      <trkpt lat="43.34312" lon="5.21025">
        <ele>111</ele>
        <time>2015-11-08T10:15:31Z</time>
      </trkpt>
      <trkpt lat="43.34302" lon="5.21011">
        <ele>111</ele>
        <time>2015-11-08T10:15:40Z</time>
      </trkpt>
      <trkpt lat="43.34289" lon="5.20949">
        <ele>109</ele>
        <time>2015-11-08T10:16:10Z</time>
      </trkpt>
      <trkpt lat="43.34289" lon="5.20887">
        <ele>106</ele>
        <time>2015-11-08T10:16:40Z</time>
      </trkpt>
      <trkpt lat="43.34318" lon="5.20836">
        <ele>101</ele>
        <time>2015-11-08T10:17:10Z</time>
      </trkpt>
      <trkpt lat="43.3432" lon="5.20834">
        <ele>102</ele>
        <time>2015-11-08T10:17:11Z</time>
      </trkpt>
      <trkpt lat="43.3434" lon="5.20775">
        <ele>97</ele>
        <time>2015-11-08T10:17:41Z</time>
      </trkpt>
      <trkpt lat="43.3436" lon="5.20711">
        <ele>97</ele>
        <time>2015-11-08T10:18:11Z</time>
      </trkpt>
      <trkpt lat="43.3436" lon="5.20708">
        <ele>97</ele>
        <time>2015-11-08T10:18:12Z</time>
      </trkpt>
      <trkpt lat="43.3436" lon="5.20705">
        <ele>99</ele>
        <time>2015-11-08T10:18:14Z</time>
      </trkpt>
      <trkpt lat="43.34371" lon="5.20677">
        <ele>100</ele>
        <time>2015-11-08T10:18:26Z</time>
      </trkpt>
      <trkpt lat="43.34377" lon="5.20669">
        <ele>100</ele>
        <time>2015-11-08T10:18:31Z</time>
      </trkpt>
      <trkpt lat="43.34424" lon="5.20652">
        <ele>99</ele>
        <time>2015-11-08T10:19:01Z</time>
      </trkpt>
      <trkpt lat="43.34471" lon="5.20639">
        <ele>100</ele>
        <time>2015-11-08T10:19:31Z</time>
      </trkpt>
      <trkpt lat="43.34516" lon="5.20625">
        <ele>104</ele>
        <time>2015-11-08T10:20:02Z</time>
      </trkpt>
      <trkpt lat="43.34563" lon="5.20618">
        <ele>105</ele>
        <time>2015-11-08T10:20:32Z</time>
      </trkpt>
      <trkpt lat="43.34608" lon="5.20634">
        <ele>112</ele>
        <time>2015-11-08T10:21:02Z</time>
      </trkpt>
      <trkpt lat="43.34616" lon="5.20633">
        <ele>115</ele>
        <time>2015-11-08T10:21:07Z</time>
      </trkpt>
      <trkpt lat="43.34667" lon="5.20636">
        <ele>116</ele>
        <time>2015-11-08T10:21:38Z</time>
      </trkpt>
      <trkpt lat="43.34715" lon="5.20618">
        <ele>114</ele>
        <time>2015-11-08T10:22:08Z</time>
      </trkpt>
      <trkpt lat="43.34759" lon="5.20597">
        <ele>119</ele>
        <time>2015-11-08T10:22:38Z</time>
      </trkpt>
      <trkpt lat="43.34803" lon="5.20611">
        <ele>128</ele>
        <time>2015-11-08T10:23:08Z</time>
      </trkpt>
      <trkpt lat="43.34853" lon="5.20614">
        <ele>124</ele>
        <time>2015-11-08T10:23:38Z</time>
      </trkpt>
      <trkpt lat="43.34857" lon="5.20612">
        <ele>124</ele>
        <time>2015-11-08T10:23:43Z</time>
      </trkpt>
      <trkpt lat="43.34858" lon="5.20609">
        <ele>122</ele>
        <time>2015-11-08T10:23:45Z</time>
      </trkpt>
      <trkpt lat="43.34858" lon="5.20607">
        <ele>122</ele>
        <time>2015-11-08T10:23:46Z</time>
      </trkpt>
      <trkpt lat="43.34858" lon="5.20605">
        <ele>122</ele>
        <time>2015-11-08T10:23:47Z</time>
      </trkpt>
      <trkpt lat="43.34859" lon="5.20598">
        <ele>122</ele>
        <time>2015-11-08T10:23:51Z</time>
      </trkpt>
      <trkpt lat="43.34858" lon="5.20591">
        <ele>123</ele>
        <time>2015-11-08T10:23:55Z</time>
      </trkpt>
      <trkpt lat="43.34856" lon="5.20588">
        <ele>124</ele>
        <time>2015-11-08T10:23:57Z</time>
      </trkpt>
      <trkpt lat="43.34856" lon="5.20586">
        <ele>124</ele>
        <time>2015-11-08T10:23:58Z</time>
      </trkpt>
      <trkpt lat="43.34828" lon="5.2054">
        <ele>132</ele>
        <time>2015-11-08T10:24:28Z</time>
      </trkpt>
      <trkpt lat="43.34811" lon="5.20509">
        <ele>133</ele>
        <time>2015-11-08T10:24:47Z</time>
      </trkpt>
      <trkpt lat="43.34812" lon="5.20507">
        <ele>133</ele>
        <time>2015-11-08T10:24:48Z</time>
      </trkpt>
      <trkpt lat="43.34815" lon="5.20501">
        <ele>132</ele>
        <time>2015-11-08T10:24:51Z</time>
      </trkpt>
      <trkpt lat="43.34851" lon="5.2046">
        <ele>131</ele>
        <time>2015-11-08T10:25:22Z</time>
      </trkpt>
      <trkpt lat="43.34852" lon="5.20458">
        <ele>131</ele>
        <time>2015-11-08T10:25:23Z</time>
      </trkpt>
      <trkpt lat="43.34891" lon="5.20433">
        <ele>123</ele>
        <time>2015-11-08T10:25:53Z</time>
      </trkpt>
      <trkpt lat="43.34893" lon="5.20431">
        <ele>124</ele>
        <time>2015-11-08T10:25:55Z</time>
      </trkpt>
      <trkpt lat="43.34894" lon="5.20428">
        <ele>124</ele>
        <time>2015-11-08T10:25:56Z</time>
      </trkpt>
      <trkpt lat="43.34936" lon="5.20401">
        <ele>119</ele>
        <time>2015-11-08T10:26:22Z</time>
      </trkpt>
      <trkpt lat="43.34951" lon="5.20399">
        <ele>120</ele>
        <time>2015-11-08T10:26:30Z</time>
      </trkpt>
      <trkpt lat="43.34996" lon="5.20421">
        <ele>120</ele>
        <time>2015-11-08T10:27:01Z</time>
      </trkpt>
      <trkpt lat="43.35036" lon="5.20445">
        <ele>112</ele>
        <time>2015-11-08T10:27:31Z</time>
      </trkpt>
      <trkpt lat="43.35084" lon="5.20457">
        <ele>108</ele>
        <time>2015-11-08T10:28:01Z</time>
      </trkpt>
      <trkpt lat="43.35089" lon="5.20457">
        <ele>108</ele>
        <time>2015-11-08T10:28:04Z</time>
      </trkpt>
      <trkpt lat="43.35098" lon="5.20446">
        <ele>108</ele>
        <time>2015-11-08T10:28:12Z</time>
      </trkpt>
      <trkpt lat="43.35121" lon="5.20411">
        <ele>111</ele>
        <time>2015-11-08T10:28:33Z</time>
      </trkpt>
      <trkpt lat="43.35137" lon="5.20398">
        <ele>109</ele>
        <time>2015-11-08T10:28:44Z</time>
      </trkpt>
      <trkpt lat="43.35137" lon="5.20391">
        <ele>112</ele>
        <time>2015-11-08T10:28:48Z</time>
      </trkpt>
      <trkpt lat="43.35136" lon="5.20387">
        <ele>113</ele>
        <time>2015-11-08T10:28:50Z</time>
      </trkpt>
      <trkpt lat="43.35131" lon="5.2032">
        <ele>111</ele>
        <time>2015-11-08T10:29:21Z</time>
      </trkpt>
      <trkpt lat="43.35129" lon="5.20316">
        <ele>108</ele>
        <time>2015-11-08T10:29:23Z</time>
      </trkpt>
      <trkpt lat="43.35128" lon="5.20313">
        <ele>107</ele>
        <time>2015-11-08T10:29:24Z</time>
      </trkpt>
      <trkpt lat="43.35127" lon="5.20311">
        <ele>107</ele>
        <time>2015-11-08T10:29:25Z</time>
      </trkpt>
      <trkpt lat="43.35127" lon="5.20309">
        <ele>106</ele>
        <time>2015-11-08T10:29:26Z</time>
      </trkpt>
      <trkpt lat="43.35127" lon="5.20306">
        <ele>105</ele>
        <time>2015-11-08T10:29:27Z</time>
      </trkpt>
      <trkpt lat="43.35126" lon="5.20304">
        <ele>105</ele>
        <time>2015-11-08T10:29:28Z</time>
      </trkpt>
      <trkpt lat="43.35123" lon="5.20291">
        <ele>106</ele>
        <time>2015-11-08T10:29:35Z</time>
      </trkpt>
      <trkpt lat="43.35121" lon="5.20285">
        <ele>111</ele>
        <time>2015-11-08T10:29:40Z</time>
      </trkpt>
      <trkpt lat="43.35121" lon="5.20282">
        <ele>115</ele>
        <time>2015-11-08T10:29:42Z</time>
      </trkpt>
      <trkpt lat="43.35121" lon="5.2028">
        <ele>115</ele>
        <time>2015-11-08T10:29:43Z</time>
      </trkpt>
      <trkpt lat="43.3512" lon="5.20275">
        <ele>115</ele>
        <time>2015-11-08T10:29:45Z</time>
      </trkpt>
      <trkpt lat="43.35121" lon="5.2027">
        <ele>114</ele>
        <time>2015-11-08T10:29:47Z</time>
      </trkpt>
      <trkpt lat="43.3512" lon="5.20268">
        <ele>114</ele>
        <time>2015-11-08T10:29:48Z</time>
      </trkpt>
      <trkpt lat="43.35119" lon="5.20265">
        <ele>116</ele>
        <time>2015-11-08T10:29:50Z</time>
      </trkpt>
      <trkpt lat="43.3512" lon="5.20263">
        <ele>116</ele>
        <time>2015-11-08T10:29:51Z</time>
      </trkpt>
      <trkpt lat="43.35121" lon="5.2026">
        <ele>116</ele>
        <time>2015-11-08T10:29:52Z</time>
      </trkpt>
      <trkpt lat="43.35135" lon="5.20187">
        <ele>106</ele>
        <time>2015-11-08T10:30:22Z</time>
      </trkpt>
      <trkpt lat="43.35143" lon="5.20171">
        <ele>106</ele>
        <time>2015-11-08T10:30:29Z</time>
      </trkpt>
      <trkpt lat="43.35145" lon="5.2017">
        <ele>108</ele>
        <time>2015-11-08T10:30:30Z</time>
      </trkpt>
      <trkpt lat="43.35147" lon="5.20165">
        <ele>109</ele>
        <time>2015-11-08T10:30:33Z</time>
      </trkpt>
      <trkpt lat="43.35183" lon="5.20132">
        <ele>101</ele>
        <time>2015-11-08T10:30:59Z</time>
      </trkpt>
      <trkpt lat="43.3522" lon="5.20124">
        <ele>93</ele>
        <time>2015-11-08T10:31:27Z</time>
      </trkpt>
      <trkpt lat="43.35221" lon="5.20126">
        <ele>93</ele>
        <time>2015-11-08T10:31:28Z</time>
      </trkpt>
      <trkpt lat="43.35226" lon="5.20131">
        <ele>93</ele>
        <time>2015-11-08T10:31:31Z</time>
      </trkpt>
      <trkpt lat="43.35269" lon="5.20143">
        <ele>97</ele>
        <time>2015-11-08T10:32:01Z</time>
      </trkpt>
      <trkpt lat="43.3528" lon="5.20154">
        <ele>94</ele>
        <time>2015-11-08T10:32:08Z</time>
      </trkpt>
      <trkpt lat="43.35292" lon="5.20188">
        <ele>101</ele>
        <time>2015-11-08T10:32:25Z</time>
      </trkpt>
      <trkpt lat="43.35296" lon="5.20195">
        <ele>106</ele>
        <time>2015-11-08T10:32:29Z</time>
      </trkpt>
      <trkpt lat="43.35349" lon="5.20188">
        <ele>97</ele>
        <time>2015-11-08T10:32:59Z</time>
      </trkpt>
      <trkpt lat="43.354" lon="5.20178">
        <ele>95</ele>
        <time>2015-11-08T10:33:29Z</time>
      </trkpt>
      <trkpt lat="43.35436" lon="5.20181">
        <ele>95</ele>
        <time>2015-11-08T10:33:49Z</time>
      </trkpt>
      <trkpt lat="43.35451" lon="5.20245">
        <ele>98</ele>
        <time>2015-11-08T10:34:19Z</time>
      </trkpt>
      <trkpt lat="43.3546" lon="5.20282">
        <ele>101</ele>
        <time>2015-11-08T10:34:37Z</time>
      </trkpt>
      <trkpt lat="43.35512" lon="5.20268">
        <ele>98</ele>
        <time>2015-11-08T10:35:08Z</time>
      </trkpt>
      <trkpt lat="43.35524" lon="5.20266">
        <ele>97</ele>
        <time>2015-11-08T10:35:15Z</time>
      </trkpt>
      <trkpt lat="43.35528" lon="5.20271">
        <ele>96</ele>
        <time>2015-11-08T10:35:18Z</time>
      </trkpt>
      <trkpt lat="43.35541" lon="5.20336">
        <ele>101</ele>
        <time>2015-11-08T10:35:49Z</time>
      </trkpt>
      <trkpt lat="43.35553" lon="5.20371">
        <ele>104</ele>
        <time>2015-11-08T10:36:06Z</time>
      </trkpt>
      <trkpt lat="43.35552" lon="5.20373">
        <ele>104</ele>
        <time>2015-11-08T10:36:07Z</time>
      </trkpt>
      <trkpt lat="43.35561" lon="5.20404">
        <ele>106</ele>
        <time>2015-11-08T10:36:23Z</time>
      </trkpt>
      <trkpt lat="43.35596" lon="5.20445">
        <ele>106</ele>
        <time>2015-11-08T10:36:53Z</time>
      </trkpt>
      <trkpt lat="43.35622" lon="5.20504">
        <ele>110</ele>
        <time>2015-11-08T10:37:23Z</time>
      </trkpt>
      <trkpt lat="43.35643" lon="5.2057">
        <ele>110</ele>
        <time>2015-11-08T10:37:53Z</time>
      </trkpt>
      <trkpt lat="43.3566" lon="5.2063">
        <ele>112</ele>
        <time>2015-11-08T10:38:24Z</time>
      </trkpt>
      <trkpt lat="43.35663" lon="5.2064">
        <ele>111</ele>
        <time>2015-11-08T10:38:33Z</time>
      </trkpt>
      <trkpt lat="43.35671" lon="5.20643">
        <ele>108</ele>
        <time>2015-11-08T10:38:47Z</time>
      </trkpt>
      <trkpt lat="43.35677" lon="5.20636">
        <ele>105</ele>
        <time>2015-11-08T10:39:07Z</time>
      </trkpt>
      <trkpt lat="43.3568" lon="5.20635">
        <ele>103</ele>
        <time>2015-11-08T10:40:00Z</time>
      </trkpt>
      <trkpt lat="43.3568" lon="5.20632">
        <ele>103</ele>
        <time>2015-11-08T10:40:38Z</time>
      </trkpt>
      <trkpt lat="43.35683" lon="5.20632">
        <ele>102</ele>
        <time>2015-11-08T10:41:14Z</time>
      </trkpt>
      <trkpt lat="43.35685" lon="5.20634">
        <ele>102</ele>
        <time>2015-11-08T10:41:44Z</time>
      </trkpt>
      <trkpt lat="43.35687" lon="5.20633">
        <ele>104</ele>
        <time>2015-11-08T10:42:14Z</time>
      </trkpt>
      <trkpt lat="43.35698" lon="5.20631">
        <ele>106</ele>
        <time>2015-11-08T10:42:32Z</time>
      </trkpt>
      <trkpt lat="43.357" lon="5.20632">
        <ele>107</ele>
        <time>2015-11-08T10:43:45Z</time>
      </trkpt>
      <trkpt lat="43.35698" lon="5.20633">
        <ele>108</ele>
        <time>2015-11-08T10:44:41Z</time>
      </trkpt>
      <trkpt lat="43.35696" lon="5.20633">
        <ele>108</ele>
        <time>2015-11-08T10:44:47Z</time>
      </trkpt>
    </trkseg>
  </trk>
</gpx>